sensor_id;sensor_type;location;lat;lon;timestamp;P1;durP1;ratioP1;P2;durP2;ratioP2
727;SDS011;347;48.780;9.158;2024-01-30T00:01:38;11.73;;;10.93;;
727;SDS011;347;48.780;9.158;2024-01-30T00:04:04;13.03;;;12.07;;
727;SDS011;347;48.780;9.158;2024-01-30T00:06:37;12.03;;;11.13;;
727;SDS011;347;48.780;9.158;2024-01-30T00:09:04;13.43;;;12.53;;
727;SDS011;347;48.780;9.158;2024-01-30T00:11:34;13.20;;;12.10;;
727;SDS011;347;48.780;9.158;2024-01-30T00:14:02;11.93;;;11.13;;
727;SDS011;347;48.780;9.158;2024-01-30T00:16:33;12.00;;;11.10;;
727;SDS011;347;48.780;9.158;2024-01-30T00:18:59;11.70;;;10.93;;
727;SDS011;347;48.780;9.158;2024-01-30T00:21:27;13.07;;;10.53;;
727;SDS011;347;48.780;9.158;2024-01-30T00:23:52;11.43;;;10.60;;
727;SDS011;347;48.780;9.158;2024-01-30T00:26:18;12.90;;;11.97;;
727;SDS011;347;48.780;9.158;2024-01-30T00:28:44;12.27;;;11.57;;
727;SDS011;347;48.780;9.158;2024-01-30T00:31:09;11.87;;;11.00;;
727;SDS011;347;48.780;9.158;2024-01-30T00:33:41;11.97;;;11.10;;
727;SDS011;347;48.780;9.158;2024-01-30T00:36:07;11.63;;;10.83;;
727;SDS011;347;48.780;9.158;2024-01-30T00:38:34;12.87;;;11.70;;
727;SDS011;347;48.780;9.158;2024-01-30T00:41:00;12.27;;;11.47;;
727;SDS011;347;48.780;9.158;2024-01-30T00:43:27;12.40;;;11.60;;
727;SDS011;347;48.780;9.158;2024-01-30T00:45:53;12.13;;;11.20;;
727;SDS011;347;48.780;9.158;2024-01-30T00:48:19;11.43;;;10.73;;
727;SDS011;347;48.780;9.158;2024-01-30T00:50:52;12.60;;;11.70;;
727;SDS011;347;48.780;9.158;2024-01-30T00:53:18;11.87;;;11.00;;
727;SDS011;347;48.780;9.158;2024-01-30T00:55:46;12.87;;;11.70;;
727;SDS011;347;48.780;9.158;2024-01-30T00:58:11;11.83;;;11.03;;
727;SDS011;347;48.780;9.158;2024-01-30T01:00:37;11.43;;;10.73;;
727;SDS011;347;48.780;9.158;2024-01-30T01:03:02;13.17;;;12.20;;
727;SDS011;347;48.780;9.158;2024-01-30T01:05:28;11.80;;;10.70;;
727;SDS011;347;48.780;9.158;2024-01-30T01:07:54;13.37;;;12.40;;
727;SDS011;347;48.780;9.158;2024-01-30T01:10:20;11.47;;;10.60;;
727;SDS011;347;48.780;9.158;2024-01-30T01:12:45;11.53;;;10.77;;
727;SDS011;347;48.780;9.158;2024-01-30T01:15:11;11.07;;;10.17;;
727;SDS011;347;48.780;9.158;2024-01-30T01:17:37;11.67;;;10.87;;
727;SDS011;347;48.780;9.158;2024-01-30T01:20:04;12.07;;;11.20;;
727;SDS011;347;48.780;9.158;2024-01-30T01:22:30;11.37;;;10.70;;
727;SDS011;347;48.780;9.158;2024-01-30T01:24:56;11.93;;;11.13;;
727;SDS011;347;48.780;9.158;2024-01-30T01:27:21;12.50;;;11.50;;
727;SDS011;347;48.780;9.158;2024-01-30T01:29:47;12.53;;;11.57;;
727;SDS011;347;48.780;9.158;2024-01-30T01:32:12;11.73;;;10.83;;
727;SDS011;347;48.780;9.158;2024-01-30T01:34:38;11.67;;;10.87;;
727;SDS011;347;48.780;9.158;2024-01-30T01:37:03;11.27;;;10.57;;
727;SDS011;347;48.780;9.158;2024-01-30T01:39:29;11.93;;;11.23;;
727;SDS011;347;48.780;9.158;2024-01-30T01:41:55;12.30;;;11.50;;
727;SDS011;347;48.780;9.158;2024-01-30T01:44:20;11.97;;;11.07;;
727;SDS011;347;48.780;9.158;2024-01-30T01:46:46;11.27;;;10.57;;
727;SDS011;347;48.780;9.158;2024-01-30T01:49:12;11.67;;;10.87;;
727;SDS011;347;48.780;9.158;2024-01-30T01:51:39;12.57;;;11.87;;
727;SDS011;347;48.780;9.158;2024-01-30T01:54:06;11.63;;;10.93;;
727;SDS011;347;48.780;9.158;2024-01-30T01:56:32;10.77;;;10.07;;
727;SDS011;347;48.780;9.158;2024-01-30T01:59:00;11.60;;;10.80;;
727;SDS011;347;48.780;9.158;2024-01-30T02:01:32;12.97;;;12.13;;
727;SDS011;347;48.780;9.158;2024-01-30T02:03:58;11.97;;;11.20;;
727;SDS011;347;48.780;9.158;2024-01-30T02:06:24;12.17;;;11.27;;
727;SDS011;347;48.780;9.158;2024-01-30T02:08:51;11.90;;;11.27;;
727;SDS011;347;48.780;9.158;2024-01-30T02:11:16;12.70;;;11.70;;
727;SDS011;347;48.780;9.158;2024-01-30T02:13:43;11.77;;;11.07;;
727;SDS011;347;48.780;9.158;2024-01-30T02:16:08;12.57;;;11.87;;
727;SDS011;347;48.780;9.158;2024-01-30T02:18:34;12.67;;;11.87;;
727;SDS011;347;48.780;9.158;2024-01-30T02:21:03;11.77;;;10.97;;
727;SDS011;347;48.780;9.158;2024-01-30T02:23:29;11.30;;;10.53;;
727;SDS011;347;48.780;9.158;2024-01-30T02:25:58;11.77;;;10.97;;
727;SDS011;347;48.780;9.158;2024-01-30T02:28:23;10.90;;;10.20;;
727;SDS011;347;48.780;9.158;2024-01-30T02:30:49;13.03;;;11.93;;
727;SDS011;347;48.780;9.158;2024-01-30T02:33:15;11.20;;;10.50;;
727;SDS011;347;48.780;9.158;2024-01-30T02:35:40;12.03;;;11.23;;
727;SDS011;347;48.780;9.158;2024-01-30T02:38:06;11.53;;;10.53;;
727;SDS011;347;48.780;9.158;2024-01-30T02:40:32;11.33;;;10.60;;
727;SDS011;347;48.780;9.158;2024-01-30T02:42:58;12.00;;;11.30;;
727;SDS011;347;48.780;9.158;2024-01-30T02:45:25;11.30;;;10.60;;
727;SDS011;347;48.780;9.158;2024-01-30T02:47:50;11.53;;;10.77;;
727;SDS011;347;48.780;9.158;2024-01-30T02:50:16;11.53;;;10.83;;
727;SDS011;347;48.780;9.158;2024-01-30T02:52:42;11.47;;;10.77;;
727;SDS011;347;48.780;9.158;2024-01-30T02:55:09;12.13;;;11.37;;
727;SDS011;347;48.780;9.158;2024-01-30T02:57:34;12.60;;;11.70;;
727;SDS011;347;48.780;9.158;2024-01-30T03:00:00;12.43;;;11.53;;
727;SDS011;347;48.780;9.158;2024-01-30T03:02:26;12.63;;;11.37;;
727;SDS011;347;48.780;9.158;2024-01-30T03:04:51;12.27;;;11.47;;
727;SDS011;347;48.780;9.158;2024-01-30T03:07:17;12.03;;;11.33;;
727;SDS011;347;48.780;9.158;2024-01-30T03:09:42;12.53;;;11.83;;
727;SDS011;347;48.780;9.158;2024-01-30T03:12:08;12.10;;;11.40;;
727;SDS011;347;48.780;9.158;2024-01-30T03:14:34;12.60;;;11.87;;
727;SDS011;347;48.780;9.158;2024-01-30T03:17:00;13.00;;;12.20;;
727;SDS011;347;48.780;9.158;2024-01-30T03:19:25;13.57;;;12.70;;
727;SDS011;347;48.780;9.158;2024-01-30T03:21:51;13.03;;;12.13;;
727;SDS011;347;48.780;9.158;2024-01-30T03:24:16;13.17;;;12.07;;
727;SDS011;347;48.780;9.158;2024-01-30T03:26:42;12.97;;;12.17;;
727;SDS011;347;48.780;9.158;2024-01-30T03:29:08;13.23;;;12.33;;
727;SDS011;347;48.780;9.158;2024-01-30T03:31:34;12.60;;;11.80;;
727;SDS011;347;48.780;9.158;2024-01-30T03:34:00;12.87;;;11.90;;
727;SDS011;347;48.780;9.158;2024-01-30T03:36:26;12.60;;;11.80;;
727;SDS011;347;48.780;9.158;2024-01-30T03:38:51;13.03;;;12.23;;
727;SDS011;347;48.780;9.158;2024-01-30T03:41:17;13.47;;;12.27;;
727;SDS011;347;48.780;9.158;2024-01-30T03:43:42;12.90;;;12.07;;
727;SDS011;347;48.780;9.158;2024-01-30T03:46:08;13.23;;;12.23;;
727;SDS011;347;48.780;9.158;2024-01-30T03:48:33;12.03;;;11.33;;
727;SDS011;347;48.780;9.158;2024-01-30T03:50:59;12.60;;;11.80;;
727;SDS011;347;48.780;9.158;2024-01-30T03:53:25;12.83;;;12.03;;
727;SDS011;347;48.780;9.158;2024-01-30T03:55:50;13.20;;;12.37;;
727;SDS011;347;48.780;9.158;2024-01-30T03:58:16;13.50;;;12.50;;
727;SDS011;347;48.780;9.158;2024-01-30T04:00:41;12.07;;;11.30;;
727;SDS011;347;48.780;9.158;2024-01-30T04:03:07;13.73;;;12.73;;
727;SDS011;347;48.780;9.158;2024-01-30T04:05:33;13.87;;;12.90;;
727;SDS011;347;48.780;9.158;2024-01-30T04:07:58;13.40;;;12.60;;
727;SDS011;347;48.780;9.158;2024-01-30T04:10:24;13.43;;;12.53;;
727;SDS011;347;48.780;9.158;2024-01-30T04:12:50;12.10;;;11.40;;
727;SDS011;347;48.780;9.158;2024-01-30T04:15:16;12.33;;;11.53;;
727;SDS011;347;48.780;9.158;2024-01-30T04:17:42;13.90;;;13.20;;
727;SDS011;347;48.780;9.158;2024-01-30T04:20:13;13.87;;;12.90;;
727;SDS011;347;48.780;9.158;2024-01-30T04:22:39;12.60;;;11.80;;
727;SDS011;347;48.780;9.158;2024-01-30T04:25:05;12.83;;;11.93;;
727;SDS011;347;48.780;9.158;2024-01-30T04:27:30;13.80;;;13.10;;
727;SDS011;347;48.780;9.158;2024-01-30T04:29:56;14.53;;;13.43;;
727;SDS011;347;48.780;9.158;2024-01-30T04:32:21;12.80;;;12.00;;
727;SDS011;347;48.780;9.158;2024-01-30T04:34:47;12.40;;;11.53;;
727;SDS011;347;48.780;9.158;2024-01-30T04:37:12;13.97;;;13.03;;
727;SDS011;347;48.780;9.158;2024-01-30T04:39:38;13.57;;;12.77;;
727;SDS011;347;48.780;9.158;2024-01-30T04:42:04;13.70;;;12.90;;
727;SDS011;347;48.780;9.158;2024-01-30T04:44:29;13.83;;;12.70;;
727;SDS011;347;48.780;9.158;2024-01-30T04:46:55;12.87;;;12.00;;
727;SDS011;347;48.780;9.158;2024-01-30T04:49:23;13.20;;;12.40;;
727;SDS011;347;48.780;9.158;2024-01-30T04:51:49;13.13;;;12.47;;
727;SDS011;347;48.780;9.158;2024-01-30T04:54:14;12.90;;;12.20;;
727;SDS011;347;48.780;9.158;2024-01-30T04:56:40;13.40;;;12.50;;
727;SDS011;347;48.780;9.158;2024-01-30T04:59:06;13.70;;;12.90;;
727;SDS011;347;48.780;9.158;2024-01-30T05:01:33;13.23;;;12.13;;
727;SDS011;347;48.780;9.158;2024-01-30T05:03:59;13.50;;;12.50;;
727;SDS011;347;48.780;9.158;2024-01-30T05:06:26;13.63;;;12.73;;
727;SDS011;347;48.780;9.158;2024-01-30T05:08:52;14.60;;;13.50;;
727;SDS011;347;48.780;9.158;2024-01-30T05:11:18;12.73;;;12.03;;
727;SDS011;347;48.780;9.158;2024-01-30T05:13:43;13.60;;;12.80;;
727;SDS011;347;48.780;9.158;2024-01-30T05:16:09;12.63;;;11.83;;
727;SDS011;347;48.780;9.158;2024-01-30T05:18:35;12.20;;;11.30;;
727;SDS011;347;48.780;9.158;2024-01-30T05:21:01;13.83;;;12.97;;
727;SDS011;347;48.780;9.158;2024-01-30T05:23:27;12.20;;;11.57;;
727;SDS011;347;48.780;9.158;2024-01-30T05:25:53;13.37;;;12.67;;
727;SDS011;347;48.780;9.158;2024-01-30T05:28:18;13.37;;;12.67;;
727;SDS011;347;48.780;9.158;2024-01-30T05:30:44;12.07;;;11.40;;
727;SDS011;347;48.780;9.158;2024-01-30T05:33:09;12.13;;;11.40;;
727;SDS011;347;48.780;9.158;2024-01-30T05:35:37;12.07;;;11.47;;
727;SDS011;347;48.780;9.158;2024-01-30T05:38:02;13.27;;;12.47;;
727;SDS011;347;48.780;9.158;2024-01-30T05:40:29;13.97;;;13.07;;
727;SDS011;347;48.780;9.158;2024-01-30T05:42:55;13.10;;;12.30;;
727;SDS011;347;48.780;9.158;2024-01-30T05:45:20;14.40;;;13.50;;
727;SDS011;347;48.780;9.158;2024-01-30T05:47:48;13.93;;;13.13;;
727;SDS011;347;48.780;9.158;2024-01-30T05:50:13;13.73;;;12.93;;
727;SDS011;347;48.780;9.158;2024-01-30T05:52:39;12.93;;;11.97;;
727;SDS011;347;48.780;9.158;2024-01-30T05:55:05;12.30;;;11.50;;
727;SDS011;347;48.780;9.158;2024-01-30T05:57:31;13.33;;;12.50;;
727;SDS011;347;48.780;9.158;2024-01-30T05:59:56;12.90;;;12.10;;
727;SDS011;347;48.780;9.158;2024-01-30T06:02:22;14.50;;;13.60;;
727;SDS011;347;48.780;9.158;2024-01-30T06:04:50;14.10;;;13.20;;
727;SDS011;347;48.780;9.158;2024-01-30T06:07:16;14.30;;;13.50;;
727;SDS011;347;48.780;9.158;2024-01-30T06:09:42;15.20;;;14.30;;
727;SDS011;347;48.780;9.158;2024-01-30T06:12:08;13.37;;;12.53;;
727;SDS011;347;48.780;9.158;2024-01-30T06:14:34;13.33;;;12.50;;
727;SDS011;347;48.780;9.158;2024-01-30T06:16:59;14.93;;;13.93;;
727;SDS011;347;48.780;9.158;2024-01-30T06:19:25;14.00;;;13.20;;
727;SDS011;347;48.780;9.158;2024-01-30T06:21:50;14.60;;;13.70;;
727;SDS011;347;48.780;9.158;2024-01-30T06:24:16;14.50;;;13.50;;
727;SDS011;347;48.780;9.158;2024-01-30T06:26:42;15.83;;;14.83;;
727;SDS011;347;48.780;9.158;2024-01-30T06:29:07;13.70;;;12.70;;
727;SDS011;347;48.780;9.158;2024-01-30T06:31:34;15.20;;;14.27;;
727;SDS011;347;48.780;9.158;2024-01-30T06:34:05;15.93;;;14.83;;
727;SDS011;347;48.780;9.158;2024-01-30T06:36:30;15.13;;;14.23;;
727;SDS011;347;48.780;9.158;2024-01-30T06:38:55;15.70;;;14.70;;
727;SDS011;347;48.780;9.158;2024-01-30T06:41:21;15.10;;;14.10;;
727;SDS011;347;48.780;9.158;2024-01-30T06:43:46;15.20;;;14.30;;
727;SDS011;347;48.780;9.158;2024-01-30T06:46:12;15.43;;;14.57;;
727;SDS011;347;48.780;9.158;2024-01-30T06:48:38;15.40;;;14.40;;
727;SDS011;347;48.780;9.158;2024-01-30T06:51:05;15.50;;;14.50;;
727;SDS011;347;48.780;9.158;2024-01-30T06:53:30;15.10;;;14.10;;
727;SDS011;347;48.780;9.158;2024-01-30T06:55:56;14.93;;;13.93;;
727;SDS011;347;48.780;9.158;2024-01-30T06:58:21;14.80;;;13.90;;
727;SDS011;347;48.780;9.158;2024-01-30T07:00:47;14.17;;;13.30;;
727;SDS011;347;48.780;9.158;2024-01-30T07:03:13;15.20;;;14.20;;
727;SDS011;347;48.780;9.158;2024-01-30T07:05:38;13.70;;;12.63;;
727;SDS011;347;48.780;9.158;2024-01-30T07:08:04;13.93;;;12.90;;
727;SDS011;347;48.780;9.158;2024-01-30T07:10:29;13.43;;;12.53;;
727;SDS011;347;48.780;9.158;2024-01-30T07:12:56;14.80;;;13.90;;
727;SDS011;347;48.780;9.158;2024-01-30T07:15:22;15.03;;;13.93;;
727;SDS011;347;48.780;9.158;2024-01-30T07:17:47;14.03;;;13.03;;
727;SDS011;347;48.780;9.158;2024-01-30T07:20:13;14.27;;;13.27;;
727;SDS011;347;48.780;9.158;2024-01-30T07:22:39;15.27;;;14.07;;
727;SDS011;347;48.780;9.158;2024-01-30T07:25:05;14.40;;;13.50;;
727;SDS011;347;48.780;9.158;2024-01-30T07:27:31;14.93;;;13.83;;
727;SDS011;347;48.780;9.158;2024-01-30T07:29:56;14.50;;;13.50;;
727;SDS011;347;48.780;9.158;2024-01-30T07:32:22;15.40;;;14.37;;
727;SDS011;347;48.780;9.158;2024-01-30T07:34:48;14.73;;;13.70;;
727;SDS011;347;48.780;9.158;2024-01-30T07:37:14;14.30;;;13.27;;
727;SDS011;347;48.780;9.158;2024-01-30T07:39:41;14.00;;;13.03;;
727;SDS011;347;48.780;9.158;2024-01-30T07:42:07;15.03;;;14.10;;
727;SDS011;347;48.780;9.158;2024-01-30T07:44:32;15.30;;;14.30;;
727;SDS011;347;48.780;9.158;2024-01-30T07:46:58;15.20;;;14.20;;
727;SDS011;347;48.780;9.158;2024-01-30T07:49:24;15.07;;;14.17;;
727;SDS011;347;48.780;9.158;2024-01-30T07:51:50;14.37;;;13.57;;
727;SDS011;347;48.780;9.158;2024-01-30T07:54:16;14.60;;;13.60;;
727;SDS011;347;48.780;9.158;2024-01-30T07:56:42;14.30;;;13.50;;
727;SDS011;347;48.780;9.158;2024-01-30T07:59:11;14.67;;;13.67;;
727;SDS011;347;48.780;9.158;2024-01-30T08:01:37;15.60;;;14.63;;
727;SDS011;347;48.780;9.158;2024-01-30T08:04:03;14.07;;;13.17;;
727;SDS011;347;48.780;9.158;2024-01-30T08:06:29;17.50;;;13.60;;
727;SDS011;347;48.780;9.158;2024-01-30T08:08:54;14.63;;;13.77;;
727;SDS011;347;48.780;9.158;2024-01-30T08:11:20;14.20;;;13.20;;
727;SDS011;347;48.780;9.158;2024-01-30T08:13:51;14.17;;;13.17;;
727;SDS011;347;48.780;9.158;2024-01-30T08:16:17;15.33;;;14.23;;
727;SDS011;347;48.780;9.158;2024-01-30T08:18:43;14.50;;;13.23;;
727;SDS011;347;48.780;9.158;2024-01-30T08:21:08;14.40;;;13.30;;
727;SDS011;347;48.780;9.158;2024-01-30T08:23:34;15.30;;;14.10;;
727;SDS011;347;48.780;9.158;2024-01-30T08:26:00;15.70;;;14.40;;
727;SDS011;347;48.780;9.158;2024-01-30T08:28:25;14.73;;;13.50;;
727;SDS011;347;48.780;9.158;2024-01-30T08:30:51;14.00;;;12.87;;
727;SDS011;347;48.780;9.158;2024-01-30T08:33:17;15.03;;;13.97;;
727;SDS011;347;48.780;9.158;2024-01-30T08:35:43;15.27;;;14.23;;
727;SDS011;347;48.780;9.158;2024-01-30T08:38:08;15.50;;;14.43;;
727;SDS011;347;48.780;9.158;2024-01-30T08:47:28;16.03;;;14.73;;
727;SDS011;347;48.780;9.158;2024-01-30T08:49:54;15.60;;;14.50;;
727;SDS011;347;48.780;9.158;2024-01-30T08:52:19;16.20;;;14.90;;
727;SDS011;347;48.780;9.158;2024-01-30T08:54:45;17.67;;;16.20;;
727;SDS011;347;48.780;9.158;2024-01-30T08:57:10;15.53;;;14.17;;
727;SDS011;347;48.780;9.158;2024-01-30T08:59:36;16.50;;;15.20;;
727;SDS011;347;48.780;9.158;2024-01-30T09:02:01;16.63;;;15.13;;
727;SDS011;347;48.780;9.158;2024-01-30T09:04:28;17.77;;;16.37;;
727;SDS011;347;48.780;9.158;2024-01-30T09:06:54;16.73;;;15.33;;
727;SDS011;347;48.780;9.158;2024-01-30T09:09:20;16.57;;;15.50;;
727;SDS011;347;48.780;9.158;2024-01-30T09:11:47;16.70;;;15.50;;
727;SDS011;347;48.780;9.158;2024-01-30T09:14:13;16.33;;;15.03;;
727;SDS011;347;48.780;9.158;2024-01-30T09:16:39;16.13;;;15.13;;
727;SDS011;347;48.780;9.158;2024-01-30T09:19:06;16.77;;;15.77;;
727;SDS011;347;48.780;9.158;2024-01-30T09:21:42;17.33;;;16.03;;
727;SDS011;347;48.780;9.158;2024-01-30T09:24:21;16.70;;;15.40;;
727;SDS011;347;48.780;9.158;2024-01-30T09:26:47;18.17;;;16.90;;
727;SDS011;347;48.780;9.158;2024-01-30T09:29:26;17.93;;;16.43;;
727;SDS011;347;48.780;9.158;2024-01-30T09:32:17;17.50;;;15.77;;
727;SDS011;347;48.780;9.158;2024-01-30T09:34:43;18.03;;;16.70;;
727;SDS011;347;48.780;9.158;2024-01-30T09:37:09;17.20;;;15.90;;
727;SDS011;347;48.780;9.158;2024-01-30T09:39:34;16.53;;;15.13;;
727;SDS011;347;48.780;9.158;2024-01-30T09:42:11;20.90;;;19.37;;
727;SDS011;347;48.780;9.158;2024-01-30T09:45:15;22.73;;;21.03;;
727;SDS011;347;48.780;9.158;2024-01-30T09:47:52;18.10;;;16.90;;
727;SDS011;347;48.780;9.158;2024-01-30T09:50:19;16.77;;;15.50;;
727;SDS011;347;48.780;9.158;2024-01-30T09:52:45;39.10;;;35.00;;
727;SDS011;347;48.780;9.158;2024-01-30T09:58:38;17.90;;;16.60;;
727;SDS011;347;48.780;9.158;2024-01-30T10:02:00;18.07;;;16.63;;
727;SDS011;347;48.780;9.158;2024-01-30T10:04:45;17.13;;;15.70;;
727;SDS011;347;48.780;9.158;2024-01-30T10:07:13;17.77;;;16.57;;
727;SDS011;347;48.780;9.158;2024-01-30T10:09:39;18.27;;;16.90;;
727;SDS011;347;48.780;9.158;2024-01-30T10:12:05;18.37;;;16.87;;
727;SDS011;347;48.780;9.158;2024-01-30T10:14:32;16.30;;;15.00;;
727;SDS011;347;48.780;9.158;2024-01-30T10:16:58;16.90;;;15.70;;
727;SDS011;347;48.780;9.158;2024-01-30T10:19:24;18.13;;;16.57;;
727;SDS011;347;48.780;9.158;2024-01-30T10:22:03;18.40;;;16.90;;
727;SDS011;347;48.780;9.158;2024-01-30T10:24:29;17.33;;;16.00;;
727;SDS011;347;48.780;9.158;2024-01-30T10:26:55;16.53;;;15.30;;
727;SDS011;347;48.780;9.158;2024-01-30T10:29:21;16.43;;;15.23;;
727;SDS011;347;48.780;9.158;2024-01-30T10:31:57;17.47;;;16.37;;
727;SDS011;347;48.780;9.158;2024-01-30T10:34:27;17.53;;;16.23;;
727;SDS011;347;48.780;9.158;2024-01-30T10:36:56;16.80;;;15.60;;
727;SDS011;347;48.780;9.158;2024-01-30T10:39:32;17.10;;;15.80;;
727;SDS011;347;48.780;9.158;2024-01-30T10:42:04;17.67;;;16.50;;
727;SDS011;347;48.780;9.158;2024-01-30T10:44:33;20.30;;;19.00;;
727;SDS011;347;48.780;9.158;2024-01-30T10:47:06;21.83;;;20.33;;
727;SDS011;347;48.780;9.158;2024-01-30T10:49:35;18.93;;;17.43;;
727;SDS011;347;48.780;9.158;2024-01-30T10:52:01;23.30;;;21.70;;
727;SDS011;347;48.780;9.158;2024-01-30T10:54:30;18.13;;;16.77;;
727;SDS011;347;48.780;9.158;2024-01-30T10:56:58;19.47;;;18.17;;
727;SDS011;347;48.780;9.158;2024-01-30T10:59:26;19.20;;;17.73;;
727;SDS011;347;48.780;9.158;2024-01-30T11:01:53;17.57;;;16.23;;
727;SDS011;347;48.780;9.158;2024-01-30T11:04:19;18.17;;;16.43;;
727;SDS011;347;48.780;9.158;2024-01-30T11:06:45;18.47;;;17.07;;
727;SDS011;347;48.780;9.158;2024-01-30T11:09:16;17.07;;;15.70;;
727;SDS011;347;48.780;9.158;2024-01-30T11:11:52;18.27;;;16.77;;
727;SDS011;347;48.780;9.158;2024-01-30T11:14:26;19.20;;;17.80;;
727;SDS011;347;48.780;9.158;2024-01-30T11:16:52;19.07;;;17.70;;
727;SDS011;347;48.780;9.158;2024-01-30T11:19:24;19.17;;;17.63;;
727;SDS011;347;48.780;9.158;2024-01-30T11:21:56;19.80;;;18.20;;
727;SDS011;347;48.780;9.158;2024-01-30T11:24:24;21.37;;;19.60;;
727;SDS011;347;48.780;9.158;2024-01-30T11:26:56;17.80;;;16.63;;
727;SDS011;347;48.780;9.158;2024-01-30T11:29:27;19.70;;;17.63;;
727;SDS011;347;48.780;9.158;2024-01-30T11:31:53;18.93;;;17.63;;
727;SDS011;347;48.780;9.158;2024-01-30T11:34:20;17.10;;;15.53;;
727;SDS011;347;48.780;9.158;2024-01-30T11:36:57;17.60;;;16.40;;
727;SDS011;347;48.780;9.158;2024-01-30T11:39:26;18.90;;;17.37;;
727;SDS011;347;48.780;9.158;2024-01-30T11:41:54;17.67;;;16.30;;
727;SDS011;347;48.780;9.158;2024-01-30T11:44:38;18.30;;;17.10;;
727;SDS011;347;48.780;9.158;2024-01-30T11:47:48;18.70;;;17.07;;
727;SDS011;347;48.780;9.158;2024-01-30T11:50:14;17.80;;;16.50;;
727;SDS011;347;48.780;9.158;2024-01-30T11:52:40;19.10;;;17.57;;
727;SDS011;347;48.780;9.158;2024-01-30T11:55:10;17.10;;;15.70;;
727;SDS011;347;48.780;9.158;2024-01-30T11:57:39;18.33;;;16.40;;
727;SDS011;347;48.780;9.158;2024-01-30T12:00:23;17.97;;;16.63;;
727;SDS011;347;48.780;9.158;2024-01-30T12:02:53;19.00;;;17.23;;
727;SDS011;347;48.780;9.158;2024-01-30T12:05:23;16.63;;;15.43;;
727;SDS011;347;48.780;9.158;2024-01-30T12:07:49;18.37;;;16.77;;
727;SDS011;347;48.780;9.158;2024-01-30T12:10:16;18.10;;;16.53;;
727;SDS011;347;48.780;9.158;2024-01-30T12:12:43;17.03;;;15.83;;
727;SDS011;347;48.780;9.158;2024-01-30T12:15:13;17.70;;;16.40;;
727;SDS011;347;48.780;9.158;2024-01-30T12:17:39;17.07;;;15.57;;
727;SDS011;347;48.780;9.158;2024-01-30T12:20:05;18.17;;;16.57;;
727;SDS011;347;48.780;9.158;2024-01-30T12:22:36;16.53;;;15.53;;
727;SDS011;347;48.780;9.158;2024-01-30T12:25:09;16.53;;;15.27;;
727;SDS011;347;48.780;9.158;2024-01-30T12:27:37;17.67;;;16.10;;
727;SDS011;347;48.780;9.158;2024-01-30T12:30:06;18.80;;;15.87;;
727;SDS011;347;48.780;9.158;2024-01-30T12:32:39;18.70;;;16.90;;
727;SDS011;347;48.780;9.158;2024-01-30T12:35:09;17.73;;;16.10;;
727;SDS011;347;48.780;9.158;2024-01-30T12:37:36;18.63;;;17.20;;
727;SDS011;347;48.780;9.158;2024-01-30T12:40:02;16.87;;;15.53;;
727;SDS011;347;48.780;9.158;2024-01-30T12:42:28;17.80;;;16.50;;
727;SDS011;347;48.780;9.158;2024-01-30T12:44:56;17.53;;;16.23;;
727;SDS011;347;48.780;9.158;2024-01-30T12:47:22;18.30;;;16.47;;
727;SDS011;347;48.780;9.158;2024-01-30T12:49:48;17.47;;;15.87;;
727;SDS011;347;48.780;9.158;2024-01-30T12:52:14;17.60;;;16.20;;
727;SDS011;347;48.780;9.158;2024-01-30T12:54:41;17.73;;;16.27;;
727;SDS011;347;48.780;9.158;2024-01-30T12:57:06;18.27;;;16.93;;
727;SDS011;347;48.780;9.158;2024-01-30T12:59:32;17.83;;;16.60;;
727;SDS011;347;48.780;9.158;2024-01-30T13:01:59;17.93;;;16.33;;
727;SDS011;347;48.780;9.158;2024-01-30T13:04:25;16.53;;;15.23;;
727;SDS011;347;48.780;9.158;2024-01-30T13:06:51;15.90;;;14.80;;
727;SDS011;347;48.780;9.158;2024-01-30T13:09:17;16.77;;;15.40;;
727;SDS011;347;48.780;9.158;2024-01-30T13:11:43;16.70;;;15.30;;
727;SDS011;347;48.780;9.158;2024-01-30T13:14:08;17.73;;;16.40;;
727;SDS011;347;48.780;9.158;2024-01-30T13:16:34;16.30;;;15.20;;
727;SDS011;347;48.780;9.158;2024-01-30T13:18:59;16.03;;;14.63;;
727;SDS011;347;48.780;9.158;2024-01-30T13:21:26;17.20;;;15.80;;
727;SDS011;347;48.780;9.158;2024-01-30T13:23:53;17.00;;;15.60;;
727;SDS011;347;48.780;9.158;2024-01-30T13:26:19;18.50;;;16.60;;
727;SDS011;347;48.780;9.158;2024-01-30T13:28:45;17.60;;;16.20;;
727;SDS011;347;48.780;9.158;2024-01-30T13:31:11;17.23;;;16.00;;
727;SDS011;347;48.780;9.158;2024-01-30T13:33:37;18.37;;;16.97;;
727;SDS011;347;48.780;9.158;2024-01-30T13:36:03;21.63;;;16.03;;
727;SDS011;347;48.780;9.158;2024-01-30T13:38:29;17.20;;;15.97;;
727;SDS011;347;48.780;9.158;2024-01-30T13:40:54;17.43;;;16.23;;
727;SDS011;347;48.780;9.158;2024-01-30T13:43:20;17.90;;;16.50;;
727;SDS011;347;48.780;9.158;2024-01-30T13:45:45;19.60;;;17.90;;
727;SDS011;347;48.780;9.158;2024-01-30T13:48:11;18.73;;;17.00;;
727;SDS011;347;48.780;9.158;2024-01-30T13:50:37;19.97;;;18.47;;
727;SDS011;347;48.780;9.158;2024-01-30T13:53:02;20.03;;;18.20;;
727;SDS011;347;48.780;9.158;2024-01-30T13:55:29;18.37;;;16.93;;
727;SDS011;347;48.780;9.158;2024-01-30T13:57:55;18.07;;;16.43;;
727;SDS011;347;48.780;9.158;2024-01-30T14:00:21;19.13;;;17.23;;
727;SDS011;347;48.780;9.158;2024-01-30T14:02:47;18.90;;;17.50;;
727;SDS011;347;48.780;9.158;2024-01-30T14:05:13;19.33;;;17.67;;
727;SDS011;347;48.780;9.158;2024-01-30T14:07:40;18.40;;;17.00;;
727;SDS011;347;48.780;9.158;2024-01-30T14:10:09;24.00;;;17.50;;
727;SDS011;347;48.780;9.158;2024-01-30T14:12:36;19.70;;;18.00;;
727;SDS011;347;48.780;9.158;2024-01-30T14:15:01;18.50;;;17.03;;
727;SDS011;347;48.780;9.158;2024-01-30T14:17:27;18.23;;;16.57;;
727;SDS011;347;48.780;9.158;2024-01-30T14:19:52;16.77;;;15.37;;
727;SDS011;347;48.780;9.158;2024-01-30T14:22:18;17.63;;;16.43;;
727;SDS011;347;48.780;9.158;2024-01-30T14:24:43;16.70;;;15.47;;
727;SDS011;347;48.780;9.158;2024-01-30T14:27:09;17.67;;;16.00;;
727;SDS011;347;48.780;9.158;2024-01-30T14:29:35;19.77;;;18.13;;
727;SDS011;347;48.780;9.158;2024-01-30T14:32:01;21.70;;;17.27;;
727;SDS011;347;48.780;9.158;2024-01-30T14:34:26;17.13;;;15.90;;
727;SDS011;347;48.780;9.158;2024-01-30T14:36:52;17.43;;;16.27;;
727;SDS011;347;48.780;9.158;2024-01-30T14:39:18;17.20;;;15.60;;
727;SDS011;347;48.780;9.158;2024-01-30T14:41:43;18.33;;;16.70;;
727;SDS011;347;48.780;9.158;2024-01-30T14:44:09;18.40;;;16.70;;
727;SDS011;347;48.780;9.158;2024-01-30T14:46:35;17.83;;;16.47;;
727;SDS011;347;48.780;9.158;2024-01-30T14:49:01;19.90;;;18.20;;
727;SDS011;347;48.780;9.158;2024-01-30T14:51:30;19.07;;;17.60;;
727;SDS011;347;48.780;9.158;2024-01-30T14:53:56;19.60;;;17.70;;
727;SDS011;347;48.780;9.158;2024-01-30T14:56:21;20.47;;;18.57;;
727;SDS011;347;48.780;9.158;2024-01-30T14:58:47;19.83;;;18.00;;
727;SDS011;347;48.780;9.158;2024-01-30T15:01:13;21.07;;;18.93;;
727;SDS011;347;48.780;9.158;2024-01-30T15:03:39;20.27;;;18.73;;
727;SDS011;347;48.780;9.158;2024-01-30T15:06:05;22.17;;;20.00;;
727;SDS011;347;48.780;9.158;2024-01-30T15:08:31;21.70;;;19.40;;
727;SDS011;347;48.780;9.158;2024-01-30T15:10:58;19.30;;;17.57;;
727;SDS011;347;48.780;9.158;2024-01-30T15:13:23;19.27;;;17.50;;
727;SDS011;347;48.780;9.158;2024-01-30T15:15:49;19.30;;;17.37;;
727;SDS011;347;48.780;9.158;2024-01-30T15:18:14;18.80;;;17.40;;
727;SDS011;347;48.780;9.158;2024-01-30T15:20:40;18.30;;;16.80;;
727;SDS011;347;48.780;9.158;2024-01-30T15:23:05;17.53;;;15.90;;
727;SDS011;347;48.780;9.158;2024-01-30T15:25:31;19.57;;;17.97;;